createdAt,value
2023-01-05T00:00:13.395Z,6.83
2023-01-05T00:01:15.033Z,6.81
2023-01-05T00:02:22.007Z,6.82
2023-01-05T00:03:25.834Z,6.82
2023-01-05T00:04:27.439Z,6.79
2023-01-05T00:05:29.730Z,6.74
2023-01-05T00:06:31.567Z,6.71
2023-01-05T00:07:33.279Z,6.66
2023-01-05T00:08:37.629Z,6.64
2023-01-05T00:09:39.358Z,6.64
2023-01-05T00:10:59.178Z,6.65
2023-01-05T00:12:19.508Z,6.60
2023-01-05T00:13:39.671Z,6.60
2023-01-05T00:14:59.611Z,6.59
2023-01-05T00:16:19.883Z,6.59
2023-01-05T00:17:42.021Z,6.62
2023-01-05T00:19:01.857Z,6.61
2023-01-05T00:20:23.948Z,6.56
2023-01-05T00:21:44.184Z,6.43
2023-01-05T00:23:04.757Z,6.47
2023-01-05T00:24:06.537Z,6.48
2023-01-05T00:25:20.460Z,6.49
2023-01-05T00:26:22.021Z,6.50
2023-01-05T00:27:23.579Z,6.49
2023-01-05T00:28:25.366Z,6.49
2023-01-05T00:29:27.026Z,6.50
2023-01-05T00:30:32.735Z,6.46
2023-01-05T00:31:34.294Z,6.39
2023-01-05T00:32:35.840Z,6.29
2023-01-05T00:33:37.358Z,6.14
2023-01-05T00:34:38.938Z,6.03
2023-01-05T00:35:40.878Z,6.04
2023-01-05T00:36:42.468Z,6.16
2023-01-05T00:37:45.281Z,6.28
2023-01-05T00:38:46.789Z,6.32
2023-01-05T00:39:48.393Z,6.34
2023-01-05T00:40:50.122Z,6.32
2023-01-05T00:41:51.682Z,6.30
2023-01-05T00:42:53.282Z,6.32
2023-01-05T00:43:54.788Z,6.31
2023-01-05T00:44:56.360Z,6.36
2023-01-05T00:45:57.942Z,6.40
2023-01-05T00:46:59.582Z,6.42
2023-01-05T00:48:01.136Z,6.46
2023-01-05T00:49:02.658Z,6.48
2023-01-05T00:50:05.693Z,6.49
2023-01-05T00:51:07.345Z,6.30
2023-01-05T00:52:09.033Z,6.09
2023-01-05T00:53:10.588Z,5.91
2023-01-05T00:54:12.120Z,5.71
2023-01-05T00:55:14.779Z,5.55
2023-01-05T00:56:16.344Z,5.43
2023-01-05T00:57:17.901Z,5.34
2023-01-05T00:58:19.435Z,5.32
2023-01-05T00:59:21.062Z,5.31
2023-01-05T01:00:22.732Z,5.28
2023-01-05T01:01:24.392Z,5.27
2023-01-05T01:02:26.028Z,5.35
2023-01-05T01:03:27.601Z,5.39
2023-01-05T01:04:31.428Z,5.45
2023-01-05T01:05:32.984Z,5.53
2023-01-05T01:06:34.475Z,5.62
2023-01-05T01:07:36.177Z,5.61
2023-01-05T01:08:37.843Z,5.66
2023-01-05T01:09:40.657Z,5.71
2023-01-05T01:10:42.279Z,5.76
2023-01-05T01:11:44.473Z,5.82
2023-01-05T01:12:46.000Z,5.83
2023-01-05T01:13:47.640Z,5.81
2023-01-05T01:14:49.873Z,5.82
2023-01-05T01:15:51.545Z,5.91
2023-01-05T01:16:53.152Z,5.99
2023-01-05T01:17:54.761Z,6.06
2023-01-05T01:18:57.189Z,6.10
2023-01-05T01:19:58.859Z,6.10
2023-01-05T01:21:00.476Z,6.16
2023-01-05T01:22:02.298Z,6.21
2023-01-05T01:23:04.642Z,6.22
2023-01-05T01:24:06.569Z,6.26
2023-01-05T01:25:08.602Z,6.16
2023-01-05T01:26:13.092Z,6.01
2023-01-05T01:27:14.695Z,5.98
2023-01-05T01:28:16.261Z,5.96
2023-01-05T01:29:18.634Z,6.00
2023-01-05T01:30:20.254Z,6.08
2023-01-05T01:31:21.980Z,6.19
2023-01-05T01:32:24.601Z,6.21
2023-01-05T01:33:26.974Z,6.26
2023-01-05T01:34:28.577Z,6.32
2023-01-05T01:35:30.134Z,6.37
2023-01-05T01:36:31.793Z,6.41
2023-01-05T01:37:33.335Z,6.45
2023-01-05T01:38:35.042Z,6.49
2023-01-05T01:39:36.618Z,6.50
2023-01-05T01:40:40.456Z,6.52
2023-01-05T01:41:42.410Z,6.53
2023-01-05T01:42:43.960Z,6.50
2023-01-05T01:43:46.992Z,6.51
2023-01-05T01:44:56.201Z,6.55
2023-01-05T01:45:57.865Z,6.57
2023-01-05T01:47:00.321Z,6.55
2023-01-05T01:48:01.908Z,6.48
2023-01-05T01:49:10.550Z,6.30
2023-01-05T01:50:22.858Z,6.12
2023-01-05T01:51:32.398Z,5.97
2023-01-05T01:52:35.812Z,6.03
2023-01-05T01:53:40.968Z,6.06
2023-01-05T01:54:42.926Z,6.06
2023-01-05T01:55:44.925Z,6.09
2023-01-05T01:56:53.430Z,6.15
2023-01-05T01:57:55.630Z,6.16
2023-01-05T01:58:57.193Z,6.20
2023-01-05T02:00:01.909Z,6.22
2023-01-05T02:01:03.914Z,6.17
2023-01-05T02:02:07.721Z,6.08
2023-01-05T02:03:10.395Z,5.99
2023-01-05T02:04:12.303Z,5.93
2023-01-05T02:05:16.740Z,5.85
2023-01-05T02:06:18.304Z,5.90
2023-01-05T02:07:19.918Z,6.04
2023-01-05T02:08:31.427Z,6.14
2023-01-05T02:09:33.175Z,6.23
2023-01-05T02:10:55.913Z,6.28
2023-01-05T02:12:24.347Z,6.36
2023-01-05T02:14:03.262Z,6.42
2023-01-05T02:15:22.620Z,6.44
2023-01-05T02:16:49.235Z,6.45
2023-01-05T02:18:03.107Z,6.34
2023-01-05T02:19:16.570Z,6.23
2023-01-05T02:20:33.119Z,6.18
2023-01-05T02:22:15.963Z,6.13
2023-01-05T02:24:00.138Z,6.18
2023-01-05T02:25:29.303Z,6.23
2023-01-05T02:26:30.801Z,6.31
2023-01-05T02:27:40.977Z,6.36
2023-01-05T02:29:18.002Z,6.42
2023-01-05T02:30:38.118Z,6.46
2023-01-05T02:31:56.585Z,6.51
2023-01-05T02:33:20.966Z,6.55
2023-01-05T02:34:40.865Z,6.52
2023-01-05T02:35:55.304Z,6.51
2023-01-05T02:37:33.720Z,6.57
2023-01-05T02:38:38.833Z,6.59
2023-01-05T02:39:56.222Z,6.63
2023-01-05T02:41:05.516Z,6.66
2023-01-05T02:42:12.883Z,6.68
2023-01-05T02:43:20.415Z,6.69
2023-01-05T02:44:22.396Z,6.73
2023-01-05T02:45:24.649Z,6.75
2023-01-05T02:46:26.397Z,6.72
2023-01-05T02:47:28.149Z,6.49
2023-01-05T02:48:29.923Z,6.16
2023-01-05T02:49:40.081Z,5.86
2023-01-05T02:50:49.590Z,5.73
2023-01-05T02:51:55.778Z,5.56
2023-01-05T02:53:03.517Z,5.42
2023-01-05T02:54:25.540Z,5.26
2023-01-05T02:55:53.437Z,5.07
2023-01-05T02:57:20.741Z,4.96
2023-01-05T02:58:31.818Z,4.98
2023-01-05T02:59:43.663Z,4.98
2023-01-05T03:00:53.322Z,4.97
2023-01-05T03:02:15.947Z,5.03
2023-01-05T03:03:35.324Z,5.04
2023-01-05T03:04:42.837Z,5.04
2023-01-05T03:05:52.146Z,5.06
2023-01-05T03:07:02.525Z,5.07
2023-01-05T03:08:08.699Z,5.10
2023-01-05T03:09:10.263Z,5.11
2023-01-05T03:10:32.292Z,5.12
2023-01-05T03:12:01.296Z,5.19
2023-01-05T03:13:27.682Z,5.28
2023-01-05T03:14:36.615Z,5.40
2023-01-05T03:15:40.784Z,5.46
2023-01-05T03:16:46.918Z,5.56
2023-01-05T03:17:52.400Z,5.64
2023-01-05T03:19:15.508Z,5.69
2023-01-05T03:20:21.978Z,5.68
2023-01-05T03:21:26.212Z,5.73
2023-01-05T03:22:49.397Z,5.79
2023-01-05T03:24:09.785Z,5.90
2023-01-05T03:25:34.204Z,5.90
2023-01-05T03:26:55.640Z,5.91
2023-01-05T03:28:16.524Z,5.94
2023-01-05T03:29:36.735Z,5.99
2023-01-05T03:31:15.725Z,6.09
2023-01-05T03:32:43.620Z,6.18
2023-01-05T03:34:09.382Z,6.21
2023-01-05T03:35:38.068Z,6.26
2023-01-05T03:36:53.295Z,6.29
2023-01-05T03:38:04.072Z,6.30
2023-01-05T03:39:07.972Z,6.25
2023-01-05T03:40:16.898Z,6.24
2023-01-05T03:41:20.858Z,6.24
2023-01-05T03:42:22.995Z,6.31
2023-01-05T03:43:25.658Z,6.35
2023-01-05T03:44:27.373Z,6.34
2023-01-05T03:45:39.301Z,6.28
2023-01-05T03:46:41.155Z,6.24
2023-01-05T03:47:42.740Z,6.22
2023-01-05T03:48:44.416Z,6.20
2023-01-05T03:49:45.983Z,6.21
2023-01-05T03:50:47.769Z,6.19
2023-01-05T03:51:49.314Z,6.24
2023-01-05T03:52:50.884Z,6.27
2023-01-05T03:53:52.469Z,6.26
2023-01-05T03:54:54.076Z,6.22
2023-01-05T03:55:55.616Z,6.24
2023-01-05T03:56:57.344Z,6.26
2023-01-05T03:57:59.021Z,6.24
2023-01-05T03:59:00.667Z,6.19
2023-01-05T04:00:02.215Z,6.17
2023-01-05T04:01:04.310Z,6.20
2023-01-05T04:02:05.974Z,6.04
2023-01-05T04:03:09.244Z,5.86
2023-01-05T04:04:10.991Z,5.69
2023-01-05T04:05:12.919Z,5.50
2023-01-05T04:06:14.479Z,5.44
2023-01-05T04:07:17.169Z,5.37
2023-01-05T04:08:18.906Z,5.34
2023-01-05T04:09:20.469Z,5.43
2023-01-05T04:10:22.262Z,5.47
2023-01-05T04:11:24.851Z,5.55
2023-01-05T04:12:26.357Z,5.64
2023-01-05T04:13:27.932Z,5.69
2023-01-05T04:14:29.521Z,5.68
2023-01-05T04:15:31.145Z,5.53
2023-01-05T04:16:33.003Z,5.39
2023-01-05T04:17:34.788Z,5.45
2023-01-05T04:18:36.412Z,5.38
2023-01-05T04:19:37.945Z,5.37
2023-01-05T04:20:39.481Z,5.42
2023-01-05T04:21:41.035Z,5.42
2023-01-05T04:22:42.599Z,5.32
2023-01-05T04:23:44.322Z,5.39
2023-01-05T04:24:45.886Z,5.48
2023-01-05T04:25:48.171Z,5.56
2023-01-05T04:26:50.351Z,5.62
2023-01-05T04:27:51.994Z,5.53
2023-01-05T04:28:53.667Z,5.50
2023-01-05T04:29:55.240Z,5.55
2023-01-05T04:30:57.473Z,5.64
2023-01-05T04:31:59.115Z,5.69
2023-01-05T04:33:00.736Z,5.77
2023-01-05T04:34:02.315Z,5.86
2023-01-05T04:35:10.839Z,5.93
2023-01-05T04:36:13.245Z,6.02
2023-01-05T04:37:14.965Z,6.06
2023-01-05T04:38:17.288Z,5.95
2023-01-05T04:39:18.849Z,5.94
2023-01-05T04:40:20.391Z,5.87
2023-01-05T04:41:21.895Z,5.77
2023-01-05T04:42:23.504Z,5.74
2023-01-05T04:43:25.290Z,5.69
2023-01-05T04:44:26.859Z,5.70
2023-01-05T04:45:28.432Z,5.73
2023-01-05T04:46:30.785Z,5.78
2023-01-05T04:47:32.492Z,5.81
2023-01-05T04:48:35.283Z,5.90
2023-01-05T04:49:37.066Z,5.99
2023-01-05T04:50:38.708Z,6.03
2023-01-05T04:51:40.258Z,6.06
2023-01-05T04:52:41.765Z,6.06
2023-01-05T04:53:43.311Z,6.01
2023-01-05T04:54:44.824Z,5.98
2023-01-05T04:55:46.517Z,5.92
2023-01-05T04:56:48.116Z,5.79
2023-01-05T04:57:49.653Z,5.69
2023-01-05T04:58:51.250Z,5.62
2023-01-05T04:59:52.761Z,5.55
2023-01-05T05:00:54.322Z,5.50
2023-01-05T05:01:55.978Z,5.43
2023-01-05T05:02:57.705Z,5.45
2023-01-05T05:03:59.351Z,5.49
2023-01-05T05:05:01.449Z,5.47
2023-01-05T05:06:03.481Z,5.43
2023-01-05T05:07:05.040Z,5.45
2023-01-05T05:08:06.683Z,5.46
2023-01-05T05:09:08.241Z,5.45
2023-01-05T05:10:10.047Z,5.44
2023-01-05T05:11:11.613Z,5.44
2023-01-05T05:12:13.683Z,5.40
2023-01-05T05:13:15.313Z,5.65
2023-01-05T05:14:16.825Z,5.80
2023-01-05T05:15:19.251Z,5.86
2023-01-05T05:16:20.933Z,5.92
2023-01-05T05:17:22.641Z,5.95
2023-01-05T05:18:24.653Z,5.94
2023-01-05T05:19:26.290Z,5.95
2023-01-05T05:20:27.860Z,5.99
2023-01-05T05:21:29.416Z,6.02
2023-01-05T05:22:31.312Z,6.05
2023-01-05T05:23:32.817Z,5.98
2023-01-05T05:24:34.389Z,5.91
2023-01-05T05:25:35.934Z,5.80
2023-01-05T05:26:37.499Z,5.74
2023-01-05T05:27:39.398Z,5.66
2023-01-05T05:28:40.933Z,5.64
2023-01-05T05:29:42.433Z,5.67
2023-01-05T05:30:44.185Z,5.68
2023-01-05T05:31:45.985Z,5.73
2023-01-05T05:32:47.560Z,5.77
2023-01-05T05:33:49.176Z,5.83
2023-01-05T05:34:50.719Z,5.90
2023-01-05T05:35:52.655Z,5.95
2023-01-05T05:36:54.232Z,6.03
2023-01-05T05:37:56.811Z,6.07
2023-01-05T05:38:58.897Z,6.07
2023-01-05T05:40:00.467Z,6.10
2023-01-05T05:41:02.006Z,6.15
2023-01-05T05:42:03.639Z,6.22
2023-01-05T05:43:05.188Z,6.24
2023-01-05T05:44:07.340Z,6.27
2023-01-05T05:45:09.280Z,6.29
2023-01-05T05:46:10.864Z,6.31
2023-01-05T05:47:12.633Z,6.39
2023-01-05T05:48:14.186Z,6.42
2023-01-05T05:49:15.900Z,6.39
2023-01-05T05:50:17.635Z,6.34
2023-01-05T05:51:19.165Z,6.32
2023-01-05T05:52:20.709Z,6.32
2023-01-05T05:53:22.261Z,6.31
2023-01-05T05:54:23.833Z,6.36
2023-01-05T05:55:25.393Z,6.21
2023-01-05T05:56:26.999Z,6.09
2023-01-05T05:57:28.606Z,5.99
2023-01-05T05:58:30.193Z,5.88
2023-01-05T05:59:31.752Z,5.83
2023-01-05T06:00:33.369Z,5.81
2023-01-05T06:01:34.997Z,5.78
2023-01-05T06:02:36.876Z,5.72
2023-01-05T06:03:38.818Z,5.69
2023-01-05T06:04:40.519Z,5.65
2023-01-05T06:05:42.343Z,5.63
2023-01-05T06:06:44.073Z,5.57
2023-01-05T06:07:45.647Z,5.55
2023-01-05T06:08:47.168Z,5.55
2023-01-05T06:09:48.700Z,5.64
2023-01-05T06:10:50.946Z,5.70
2023-01-05T06:11:52.972Z,5.64
2023-01-05T06:12:55.549Z,5.61
2023-01-05T06:13:57.050Z,5.62
2023-01-05T06:14:58.622Z,5.61
2023-01-05T06:16:00.348Z,5.63
2023-01-05T06:17:02.064Z,5.62
2023-01-05T06:18:04.106Z,5.65
2023-01-05T06:19:05.713Z,5.65
2023-01-05T06:20:09.421Z,5.69
2023-01-05T06:21:10.969Z,5.77
2023-01-05T06:22:12.489Z,5.84
2023-01-05T06:23:14.847Z,5.91
2023-01-05T06:24:16.474Z,5.82
2023-01-05T06:25:18.297Z,5.68
2023-01-05T06:26:20.091Z,5.62
2023-01-05T06:27:21.631Z,5.61
2023-01-05T06:28:23.194Z,5.63
2023-01-05T06:29:24.776Z,5.65
2023-01-05T06:30:27.154Z,5.62
2023-01-05T06:31:28.865Z,5.51
2023-01-05T06:32:30.477Z,5.51
2023-01-05T06:33:32.018Z,5.58
2023-01-05T06:34:33.613Z,5.68
2023-01-05T06:35:35.251Z,5.76
2023-01-05T06:36:36.816Z,5.85
2023-01-05T06:37:38.492Z,5.86
2023-01-05T06:38:40.046Z,5.87
2023-01-05T06:39:41.658Z,5.76
2023-01-05T06:40:45.956Z,5.56
2023-01-05T06:41:47.496Z,5.46
2023-01-05T06:42:49.572Z,5.40
2023-01-05T06:43:51.119Z,5.33
2023-01-05T06:44:52.687Z,5.29
2023-01-05T06:45:54.349Z,5.26
2023-01-05T06:46:55.942Z,5.22
2023-01-05T06:47:59.029Z,5.10
2023-01-05T06:49:00.646Z,5.15
2023-01-05T06:50:02.205Z,5.18
2023-01-05T06:51:03.900Z,5.17
2023-01-05T06:52:07.604Z,5.08
2023-01-05T06:53:15.171Z,5.06
2023-01-05T06:54:16.708Z,5.12
2023-01-05T06:55:18.350Z,5.26
2023-01-05T06:56:19.915Z,5.39
2023-01-05T06:57:21.556Z,5.51
2023-01-05T06:58:23.301Z,5.58
2023-01-05T06:59:24.867Z,5.57
2023-01-05T07:00:26.359Z,5.56
2023-01-05T07:01:27.992Z,5.56
2023-01-05T07:02:29.677Z,5.69
2023-01-05T07:03:31.277Z,5.82
2023-01-05T07:04:32.789Z,5.88
2023-01-05T07:05:34.430Z,5.92
2023-01-05T07:06:36.359Z,5.98
2023-01-05T07:07:38.098Z,6.01
2023-01-05T07:08:39.681Z,6.09
2023-01-05T07:09:42.062Z,6.13
2023-01-05T07:10:43.617Z,6.19
2023-01-05T07:11:45.180Z,6.27
2023-01-05T07:12:46.737Z,6.27
2023-01-05T07:13:49.890Z,6.22
2023-01-05T07:14:57.115Z,6.21
2023-01-05T07:15:59.174Z,6.24
2023-01-05T07:17:00.852Z,6.26
2023-01-05T07:18:02.443Z,6.27
2023-01-05T07:19:04.067Z,6.28
2023-01-05T07:20:08.005Z,6.31
2023-01-05T07:21:09.533Z,6.33
2023-01-05T07:22:11.907Z,6.37
2023-01-05T07:23:13.600Z,6.39
2023-01-05T07:24:15.325Z,6.46
2023-01-05T07:25:16.983Z,6.49
2023-01-05T07:26:18.581Z,6.53
2023-01-05T07:27:20.241Z,6.58
2023-01-05T07:28:21.814Z,6.60
2023-01-05T07:29:23.400Z,6.64
2023-01-05T07:30:25.020Z,6.69
2023-01-05T07:31:26.577Z,6.72
2023-01-05T07:32:28.174Z,6.70
2023-01-05T07:33:33.458Z,6.74
2023-01-05T07:34:37.736Z,6.76
2023-01-05T07:35:39.304Z,6.73
2023-01-05T07:36:40.916Z,6.77
2023-01-05T07:37:44.388Z,6.80
2023-01-05T07:38:45.936Z,6.74
2023-01-05T07:39:47.502Z,6.72
2023-01-05T07:40:49.078Z,6.76
2023-01-05T07:41:50.621Z,6.81
2023-01-05T07:42:53.431Z,6.87
2023-01-05T07:43:55.203Z,6.92
2023-01-05T07:44:56.740Z,6.98
2023-01-05T07:45:59.819Z,7.04
2023-01-05T07:47:01.918Z,7.10
2023-01-05T07:48:03.900Z,7.16
2023-01-05T07:49:05.595Z,7.21
2023-01-05T07:50:07.542Z,7.27
2023-01-05T07:51:10.584Z,7.34
2023-01-05T07:52:12.343Z,7.38
2023-01-05T07:53:13.896Z,7.34
2023-01-05T07:54:15.660Z,7.29
2023-01-05T07:55:17.625Z,7.34
2023-01-05T07:56:19.200Z,7.39
2023-01-05T07:57:20.760Z,7.47
2023-01-05T07:58:22.302Z,7.52
2023-01-05T07:59:23.941Z,7.55
2023-01-05T08:00:25.516Z,7.59
2023-01-05T08:01:27.196Z,7.62
2023-01-05T08:02:35.476Z,7.62
2023-01-05T08:03:37.922Z,7.66
2023-01-05T08:04:39.520Z,7.59
2023-01-05T08:05:41.192Z,7.52
2023-01-05T08:06:42.765Z,7.57
2023-01-05T08:07:44.311Z,7.63
2023-01-05T08:08:46.589Z,7.68
2023-01-05T08:10:06.754Z,7.70
2023-01-05T08:11:10.554Z,7.63
2023-01-05T08:12:12.113Z,7.48
2023-01-05T08:13:32.192Z,7.25
2023-01-05T08:14:33.741Z,7.21
2023-01-05T08:15:35.352Z,7.07
2023-01-05T08:16:36.958Z,7.10
2023-01-05T08:17:41.186Z,7.18
2023-01-05T08:18:42.984Z,7.35
2023-01-05T08:19:44.583Z,7.40
2023-01-05T08:20:57.226Z,7.44
2023-01-05T08:21:58.771Z,7.55
2023-01-05T08:23:00.356Z,7.66
2023-01-05T08:24:02.089Z,7.68
2023-01-05T08:25:04.081Z,7.59
2023-01-05T08:26:06.956Z,7.52
2023-01-05T08:27:08.632Z,7.54
2023-01-05T08:28:10.285Z,7.71
2023-01-05T08:29:11.867Z,7.84
2023-01-05T08:30:14.129Z,7.96
2023-01-05T08:31:22.516Z,7.90
2023-01-05T08:32:24.106Z,7.96
2023-01-05T08:33:25.649Z,8.02
2023-01-05T08:34:32.866Z,7.94
2023-01-05T08:35:43.236Z,7.92
2023-01-05T08:36:44.815Z,7.96
2023-01-05T08:37:46.380Z,7.89
2023-01-05T08:38:51.029Z,7.87
2023-01-05T08:39:52.666Z,7.99
2023-01-05T08:40:58.896Z,8.11
2023-01-05T08:42:02.712Z,8.26
2023-01-05T08:43:06.161Z,8.45
2023-01-05T08:44:12.050Z,8.64
2023-01-05T08:45:15.237Z,8.79
2023-01-05T08:46:16.923Z,8.96
2023-01-05T08:47:18.612Z,9.11
2023-01-05T08:48:20.212Z,9.22
2023-01-05T08:49:21.883Z,9.37
2023-01-05T08:50:23.580Z,9.56
2023-01-05T08:51:25.760Z,9.54
2023-01-05T08:52:27.402Z,9.50
2023-01-05T08:53:28.971Z,9.44
2023-01-05T08:54:30.606Z,9.47
2023-01-05T08:55:32.160Z,9.57
2023-01-05T08:56:38.680Z,9.68
2023-01-05T08:57:41.034Z,9.82
2023-01-05T08:58:43.562Z,9.88
2023-01-05T08:59:45.127Z,9.92
2023-01-05T09:00:46.691Z,10.03
2023-01-05T09:01:48.403Z,10.17
2023-01-05T09:02:50.274Z,10.30
2023-01-05T09:03:52.042Z,10.34
2023-01-05T09:04:53.743Z,10.27
2023-01-05T09:05:55.349Z,10.19
2023-01-05T09:06:56.874Z,10.23
2023-01-05T09:07:58.452Z,10.18
2023-01-05T09:09:00.064Z,10.23
2023-01-05T09:10:01.632Z,10.17
2023-01-05T09:11:07.064Z,10.07
2023-01-05T09:12:08.920Z,9.94
2023-01-05T09:13:10.879Z,9.84
2023-01-05T09:14:14.786Z,9.82
2023-01-05T09:15:16.318Z,9.73
2023-01-05T09:16:35.501Z,9.78
2023-01-05T09:17:41.822Z,9.78
2023-01-05T09:18:43.846Z,9.87
2023-01-05T09:19:45.631Z,9.89
2023-01-05T09:20:55.354Z,9.91
2023-01-05T09:21:56.952Z,9.97
2023-01-05T09:22:58.538Z,10.14
2023-01-05T09:24:00.129Z,10.32
2023-01-05T09:25:02.303Z,10.27
2023-01-05T09:26:08.133Z,10.22
2023-01-05T09:27:10.102Z,10.16
2023-01-05T09:28:11.687Z,10.12
2023-01-05T09:29:13.621Z,10.16
2023-01-05T09:30:16.201Z,10.18
2023-01-05T09:31:20.408Z,10.25
2023-01-05T09:32:23.396Z,10.31
2023-01-05T09:33:25.879Z,10.44
2023-01-05T09:34:27.570Z,10.48
2023-01-05T09:35:29.155Z,10.55
2023-01-05T09:36:32.223Z,10.70
2023-01-05T09:37:33.780Z,10.82
2023-01-05T09:38:36.079Z,10.75
2023-01-05T09:39:37.743Z,10.92
2023-01-05T09:40:43.309Z,11.07
2023-01-05T09:41:47.105Z,11.18
2023-01-05T09:42:49.121Z,11.26
2023-01-05T09:43:56.627Z,11.24
2023-01-05T09:45:05.134Z,11.26
2023-01-05T09:46:14.174Z,11.27
2023-01-05T09:47:27.013Z,11.20
2023-01-05T09:48:36.249Z,11.18
2023-01-05T09:49:40.182Z,11.26
2023-01-05T09:50:43.573Z,11.28
2023-01-05T09:51:45.208Z,11.36
2023-01-05T09:52:47.935Z,11.49
2023-01-05T09:53:49.488Z,11.65
2023-01-05T09:54:51.027Z,11.80
2023-01-05T09:55:53.691Z,11.84
2023-01-05T09:57:08.434Z,11.94
2023-01-05T09:58:16.383Z,12.18
2023-01-05T09:59:23.816Z,12.32
2023-01-05T10:00:27.055Z,12.34
2023-01-05T10:01:28.899Z,12.40
2023-01-05T10:02:49.198Z,12.48
2023-01-05T10:04:30.062Z,12.49
2023-01-05T10:05:36.908Z,12.45
2023-01-05T10:06:43.873Z,12.53
2023-01-05T10:08:00.590Z,12.70
2023-01-05T10:09:04.665Z,12.56
2023-01-05T10:10:18.067Z,12.45
2023-01-05T10:12:02.171Z,12.47
2023-01-05T10:13:07.219Z,12.65
2023-01-05T10:14:20.044Z,12.85
2023-01-05T10:15:21.957Z,12.93
2023-01-05T10:16:29.293Z,13.06
2023-01-05T10:17:44.351Z,13.01
2023-01-05T10:18:47.330Z,12.78
2023-01-05T10:19:50.613Z,12.89
2023-01-05T10:21:32.287Z,12.90
2023-01-05T10:22:48.465Z,12.75
2023-01-05T10:24:02.004Z,12.70
2023-01-05T10:25:26.970Z,12.82
2023-01-05T10:27:23.653Z,12.95
2023-01-05T10:28:41.748Z,12.81
2023-01-05T10:29:44.715Z,12.59
2023-01-05T10:30:59.391Z,12.32
2023-01-05T10:32:30.586Z,12.19
2023-01-05T10:33:51.682Z,12.11
2023-01-05T10:35:00.737Z,12.02
2023-01-05T10:38:13.087Z,12.16
2023-01-05T10:39:14.643Z,12.23
2023-01-05T10:40:31.086Z,12.26
2023-01-05T10:41:44.742Z,12.26
2023-01-05T10:42:58.443Z,12.12
2023-01-05T10:44:44.918Z,12.09
2023-01-05T10:46:19.786Z,12.16
2023-01-05T10:47:12.764Z,12.21
2023-01-05T10:48:17.655Z,12.22
2023-01-05T10:49:24.704Z,12.28
2023-01-05T10:50:29.122Z,12.34
2023-01-05T10:51:33.844Z,12.49
2023-01-05T10:52:35.399Z,12.59
2023-01-05T10:53:40.814Z,12.66
2023-01-05T10:54:45.268Z,12.76
2023-01-05T10:56:02.600Z,12.87
2023-01-05T10:57:34.550Z,12.98
2023-01-05T10:58:39.824Z,13.03
2023-01-05T10:59:55.714Z,12.97
2023-01-05T11:01:21.231Z,12.75
2023-01-05T11:02:25.480Z,12.82
2023-01-05T11:04:15.013Z,12.84
2023-01-05T11:05:27.445Z,12.90
2023-01-05T11:06:31.020Z,12.91
2023-01-05T11:07:32.900Z,12.95
2023-01-05T11:08:35.756Z,13.03
2023-01-05T11:09:42.761Z,13.14
2023-01-05T11:10:58.785Z,13.13
2023-01-05T11:12:03.191Z,13.05
2023-01-05T11:13:27.822Z,13.00
2023-01-05T11:14:36.038Z,12.72
2023-01-05T11:15:44.302Z,12.68
2023-01-05T11:16:53.528Z,12.67
2023-01-05T11:17:55.740Z,12.60
2023-01-05T11:18:59.922Z,12.59
2023-01-05T11:20:03.349Z,12.68
2023-01-05T11:21:13.555Z,12.70
2023-01-05T11:22:39.910Z,12.78
2023-01-05T11:23:54.592Z,12.78
2023-01-05T11:25:12.836Z,12.83
2023-01-05T11:26:23.485Z,12.89
2023-01-05T11:27:25.453Z,12.95
2023-01-05T11:28:27.053Z,12.95
2023-01-05T11:29:29.589Z,12.84
2023-01-05T11:30:31.785Z,12.79
2023-01-05T11:31:35.631Z,12.84
2023-01-05T11:32:37.392Z,12.89
2023-01-05T11:33:39.737Z,12.92
2023-01-05T11:34:47.137Z,12.94
2023-01-05T11:35:50.215Z,12.91
2023-01-05T11:36:55.304Z,12.97
2023-01-05T11:37:57.969Z,12.95
2023-01-05T11:38:59.672Z,12.97
2023-01-05T11:40:04.063Z,13.02
2023-01-05T11:41:11.604Z,13.02
2023-01-05T11:42:26.097Z,13.06
2023-01-05T11:43:32.804Z,13.10
2023-01-05T11:44:35.879Z,13.10
2023-01-05T11:45:46.364Z,13.03
2023-01-05T11:46:48.565Z,12.95
2023-01-05T11:47:54.969Z,12.94
2023-01-05T11:48:57.482Z,12.91
2023-01-05T11:50:08.721Z,12.91
2023-01-05T11:51:34.713Z,13.05
2023-01-05T11:52:39.392Z,13.15
2023-01-05T11:53:41.022Z,13.13
2023-01-05T11:54:43.010Z,13.10
2023-01-05T11:55:44.561Z,13.12
2023-01-05T11:56:46.108Z,13.14
2023-01-05T11:57:51.601Z,13.23
2023-01-05T11:58:58.208Z,13.17
2023-01-05T11:59:59.760Z,13.08
2023-01-05T12:01:22.397Z,13.13
2023-01-05T12:02:58.227Z,12.91
2023-01-05T12:04:21.387Z,12.86
2023-01-05T12:05:22.913Z,12.82
2023-01-05T12:06:46.110Z,12.75
2023-01-05T12:07:54.277Z,12.77
2023-01-05T12:09:09.760Z,12.79
2023-01-05T12:10:42.542Z,12.81
2023-01-05T12:12:03.065Z,12.82
2023-01-05T12:13:46.974Z,12.78
2023-01-05T12:14:48.467Z,12.76
2023-01-05T12:16:05.230Z,12.77
2023-01-05T12:17:14.214Z,12.74
2023-01-05T12:18:30.011Z,12.67
2023-01-05T12:20:00.764Z,12.55
2023-01-05T12:21:14.359Z,12.50
2023-01-05T12:22:27.703Z,12.51
2023-01-05T12:23:38.198Z,12.48
2023-01-05T12:24:51.802Z,12.51
2023-01-05T12:26:26.987Z,12.53
2023-01-05T12:28:04.913Z,12.58
2023-01-05T12:34:13.045Z,12.51
2023-01-05T12:35:25.712Z,12.61
2023-01-05T12:36:46.020Z,12.74
2023-01-05T12:38:06.177Z,12.76
2023-01-05T12:39:38.574Z,12.88
2023-01-05T12:40:49.484Z,12.91
2023-01-05T12:42:07.604Z,12.89
2023-01-05T12:43:15.401Z,12.86
2023-01-05T12:44:35.637Z,12.93
2023-01-05T12:46:00.643Z,12.84
2023-01-05T12:47:14.049Z,12.77
2023-01-05T12:48:38.513Z,12.79
2023-01-05T12:49:46.671Z,12.78
2023-01-05T12:51:04.591Z,12.88
2023-01-05T12:52:33.010Z,12.93
2023-01-05T12:53:50.728Z,12.92
2023-01-05T12:55:04.258Z,12.94
2023-01-05T12:56:28.466Z,13.01
2023-01-05T12:57:36.669Z,12.98
2023-01-05T12:58:53.853Z,13.03
2023-01-05T12:59:58.867Z,13.16
2023-01-05T13:01:02.296Z,13.24
2023-01-05T13:02:07.078Z,13.30
2023-01-05T13:03:19.989Z,13.34
2023-01-05T13:04:48.613Z,13.33
2023-01-05T13:06:21.851Z,13.20
2023-01-05T13:07:45.460Z,13.13
2023-01-05T13:09:17.202Z,13.09
2023-01-05T13:10:27.868Z,13.02
2023-01-05T13:11:29.348Z,12.95
2023-01-05T13:12:34.047Z,12.94
2023-01-05T13:13:51.165Z,12.99
2023-01-05T13:15:12.273Z,13.01
2023-01-05T13:16:20.172Z,13.02
2023-01-05T13:17:27.353Z,13.05
2023-01-05T13:18:32.110Z,13.05
2023-01-05T13:19:50.296Z,13.05
2023-01-05T13:20:58.322Z,13.05
2023-01-05T13:22:06.772Z,13.02
2023-01-05T13:23:17.340Z,13.05
2023-01-05T13:25:05.416Z,13.07
2023-01-05T13:26:22.014Z,13.05
2023-01-05T13:27:23.573Z,13.04
2023-01-05T13:28:28.738Z,13.02
2023-01-05T13:29:57.403Z,12.94
2023-01-05T13:31:13.171Z,12.95
2023-01-05T13:32:26.313Z,12.94
2023-01-05T13:34:09.415Z,12.96
2023-01-05T13:35:35.930Z,12.99
2023-01-05T13:37:04.988Z,12.98
2023-01-05T13:38:37.382Z,13.01
2023-01-05T13:40:10.014Z,13.08
2023-01-05T13:41:41.896Z,13.08
2023-01-05T13:43:17.393Z,13.08
2023-01-05T13:44:46.809Z,13.02
2023-01-05T13:46:10.636Z,13.00
2023-01-05T13:47:28.445Z,12.99
2023-01-05T13:49:07.417Z,13.05
2023-01-05T13:50:37.273Z,13.17
2023-01-05T13:51:41.484Z,13.13
2023-01-05T13:53:04.858Z,13.07
2023-01-05T13:54:13.662Z,13.13
2023-01-05T13:55:25.767Z,13.17
2023-01-05T13:56:30.161Z,13.19
2023-01-05T13:57:41.285Z,13.13
2023-01-05T13:58:46.940Z,13.20
2023-01-05T14:00:04.647Z,13.23
2023-01-05T14:01:15.786Z,13.28
2023-01-05T14:02:33.559Z,13.36
2023-01-05T14:04:49.708Z,13.22
2023-01-05T14:05:54.928Z,13.26
2023-01-05T14:07:12.813Z,13.22
2023-01-05T14:08:21.744Z,13.15
2023-01-05T14:09:38.997Z,13.09
2023-01-05T14:10:40.535Z,13.07
2023-01-05T14:12:16.181Z,13.04
2023-01-05T14:13:48.875Z,12.97
2023-01-05T14:15:12.760Z,12.93
2023-01-05T14:16:37.027Z,12.88
2023-01-05T14:17:55.492Z,12.87
2023-01-05T14:19:10.396Z,12.87
2023-01-05T14:20:53.017Z,12.89
2023-01-05T14:21:59.703Z,12.90
2023-01-05T14:23:04.324Z,12.85
2023-01-05T14:24:27.560Z,12.81
2023-01-05T14:25:38.193Z,12.83
2023-01-05T14:27:06.267Z,12.82
2023-01-05T14:28:41.581Z,12.78
2023-01-05T14:29:48.837Z,12.74
2023-01-05T14:30:51.743Z,12.78
2023-01-05T14:31:53.349Z,12.86
2023-01-05T14:32:55.606Z,12.92
2023-01-05T14:34:03.710Z,12.98
2023-01-05T14:35:11.392Z,13.04
2023-01-05T14:36:57.047Z,13.10
2023-01-05T14:38:02.458Z,13.11
2023-01-05T14:39:26.147Z,13.08
2023-01-05T14:40:39.789Z,13.04
2023-01-05T14:41:43.105Z,13.02
2023-01-05T14:42:48.925Z,12.98
2023-01-05T14:44:27.037Z,12.96
2023-01-05T14:45:31.621Z,12.90
2023-01-05T14:46:57.250Z,12.96
2023-01-05T14:48:03.085Z,12.88
2023-01-05T14:49:07.967Z,12.79
2023-01-05T14:50:40.250Z,12.71
2023-01-05T14:51:53.487Z,12.76
2023-01-05T14:53:14.389Z,12.81
2023-01-05T14:54:35.822Z,12.86
2023-01-05T14:55:40.997Z,12.88
2023-01-05T14:57:20.432Z,12.91
2023-01-05T14:58:37.272Z,12.88